Terminal Aerodrome Forecast
Issued by NWS Cleveland, OH

Home | Current Version | Previous Version | Graphics & Text | Print | Product List | Glossary On
Versions: 1 2 3 4 5 6 7 8 9 10 11 12 13 14 15 16 17 18
000
FTUS41 KCLE 181700
TAFTOL
TAF
KTOL 181729Z 1818/1918 03006KT P6SM FEW025 SCT035
      TEMPO 1820/1823 SCT025 BKN035
     FM182300 07005KT P6SM BKN035
     FM190800 VRB03KT 5SM BR FEW035
     FM191330 10005KT P6SM SCT040=

USA.gov is the U.S. government's official web portal to all federal, state and local government web resources and services.